Skyline Princess — WDB7684 — position and weather

sailwx.info

Track history (hours):
 
Tides and Currents Weather Stations Pressure Air Temp Water Temp Dewpoint Dewpoint Depression Visibility Wind Speed Wind Dir Waves Ship Positions

Skyline Princess

Owner: Skyline Cruise Lines Inc, Flushing, NY. More information available from US FCC via Universal Licensing System and Coast Guard Vessel Documentation Center.

Last reported at 2018-Feb-15 04:48 UTC. Time now 2018-Feb-24 14:21 UTC.
Position N 40°46' W 073°51'.
Warning: this ship's position is 9 days out of date.

MMSI: 366946170.

Date/timePositionNaut miles runAvg speedWind from/ knotsBaromVisibWave heightAir tempDewpointWater temp
2018-Feb-15 04:48N 40°46' W 073°51'0 0.0
2018-Feb-15 04:30N 40°46' W 073°51'2 4.6
2018-Feb-15 04:00N 40°48' W 073°52'3 5.9
2018-Feb-15 03:29N 40°47' W 073°56'3 5.9
2018-Feb-15 03:00N 40°44' W 073°58'3 6.7
2018-Feb-15 02:30N 40°42' W 074°01'0 0.8
2018-Feb-15 02:00N 40°42' W 074°00'3 6.7
2018-Feb-15 01:30N 40°45' W 073°58'4 6.2
2018-Feb-15 00:52N 40°48' W 073°54'2 5.8
2018-Feb-15 00:30N 40°47' W 073°52'  
2018-Feb-11 04:40N 40°46' W 073°51'1 4.0
2018-Feb-11 04:30N 40°46' W 073°51'3 5.7
2018-Feb-11 03:59N 40°48' W 073°55'1 2.8
2018-Feb-11 03:30N 40°47' W 073°56'1 3.0
2018-Feb-11 03:00N 40°46' W 073°57'3 5.6
2018-Feb-11 02:30N 40°43' W 073°58'3 5.7
2018-Feb-11 02:00N 40°42' W 074°02'2 4.0
2018-Feb-11 01:29N 40°42' W 073°59'5 9.9
2018-Feb-11 00:59N 40°47' W 073°56'3 6.6
2018-Feb-11 00:30N 40°47' W 073°52'2 3.4
2018-Feb-11 00:00N 40°46' W 073°51'0 0.0
2018-Feb-10 23:29N 40°46' W 073°51'0 0.0
2018-Feb-10 23:00N 40°46' W 073°51'  
Track history (hours):
 
Tides and Currents Weather Stations Pressure Air Temp Water Temp Dewpoint Dewpoint Depression Visibility Wind Speed Wind Dir Waves Ship Positions

Skyline Princess

Owner: Skyline Cruise Lines Inc, Flushing, NY. More information available from US FCC via Universal Licensing System and Coast Guard Vessel Documentation Center.

Last reported at 2018-Feb-15 04:48 UTC. Time now 2018-Feb-24 14:21 UTC.
Position N 40°46' W 073°51'.
Warning: this ship's position is 9 days out of date.

MMSI: 366946170.

Date/timePositionNaut miles runAvg speedWind from/ knotsBaromVisibWave heightAir tempDewpointWater temp
2018-Feb-15 04:48N 40°46' W 073°51'0 0.0
2018-Feb-15 04:30N 40°46' W 073°51'2 4.6
2018-Feb-15 04:00N 40°48' W 073°52'3 5.9
2018-Feb-15 03:29N 40°47' W 073°56'3 5.9
2018-Feb-15 03:00N 40°44' W 073°58'3 6.7
2018-Feb-15 02:30N 40°42' W 074°01'0 0.8
2018-Feb-15 02:00N 40°42' W 074°00'3 6.7
2018-Feb-15 01:30N 40°45' W 073°58'4 6.2
2018-Feb-15 00:52N 40°48' W 073°54'2 5.8
2018-Feb-15 00:30N 40°47' W 073°52'  
2018-Feb-11 04:40N 40°46' W 073°51'1 4.0
2018-Feb-11 04:30N 40°46' W 073°51'3 5.7
2018-Feb-11 03:59N 40°48' W 073°55'1 2.8
2018-Feb-11 03:30N 40°47' W 073°56'1 3.0
2018-Feb-11 03:00N 40°46' W 073°57'3 5.6
2018-Feb-11 02:30N 40°43' W 073°58'3 5.7
2018-Feb-11 02:00N 40°42' W 074°02'2 4.0
2018-Feb-11 01:29N 40°42' W 073°59'5 9.9
2018-Feb-11 00:59N 40°47' W 073°56'3 6.6
2018-Feb-11 00:30N 40°47' W 073°52'2 3.4
2018-Feb-11 00:00N 40°46' W 073°51'0 0.0
2018-Feb-10 23:29N 40°46' W 073°51'0 0.0
2018-Feb-10 23:00N 40°46' W 073°51'  

Dump ship's entire track history